createdAt,value
2019-03-03T00:01:01.293Z,55.65
2019-03-03T00:03:28.398Z,56.45
2019-03-03T00:05:55.209Z,56.33
2019-03-03T00:08:22.151Z,55.85
2019-03-03T00:10:48.843Z,55.86
2019-03-03T00:13:15.772Z,56.14
2019-03-03T00:15:42.506Z,55.63
2019-03-03T00:18:09.435Z,55.41
2019-03-03T00:20:36.481Z,55.55
2019-03-03T00:23:03.116Z,56.28
2019-03-03T00:25:30.114Z,56.78
2019-03-03T00:27:56.747Z,56.88
2019-03-03T00:30:23.490Z,57.11
2019-03-03T00:32:50.374Z,57.32
2019-03-03T00:35:17.124Z,57.36
2019-03-03T00:37:45.314Z,56.94
2019-03-03T00:40:11.947Z,56.87
2019-03-03T00:42:38.617Z,56.88
2019-03-03T00:45:05.310Z,56.19
2019-03-03T00:47:33.064Z,55.88
2019-03-03T00:49:59.926Z,56.22
2019-03-03T00:52:26.962Z,56.42
2019-03-03T00:54:53.620Z,56.12
2019-03-03T00:57:20.295Z,55.31
2019-03-03T00:59:47.258Z,55.22
2019-03-03T01:02:14.002Z,55.47
2019-03-03T01:04:41.501Z,55.66
2019-03-03T01:07:08.243Z,55.63
2019-03-03T01:09:34.874Z,55.72
2019-03-03T01:12:01.570Z,55.88
2019-03-03T01:14:28.560Z,55.76
2019-03-03T01:16:55.158Z,55.46
2019-03-03T01:19:21.917Z,55.47
2019-03-03T01:21:48.847Z,55.51
2019-03-03T01:24:15.507Z,55.55
2019-03-03T01:26:42.453Z,55.90
2019-03-03T01:29:09.184Z,55.57
2019-03-03T01:31:35.863Z,55.70
2019-03-03T01:34:02.543Z,55.74
2019-03-03T01:36:29.483Z,55.99
2019-03-03T01:38:56.171Z,56.42
2019-03-03T01:41:22.926Z,56.35
2019-03-03T01:43:49.857Z,56.24
2019-03-03T01:46:16.842Z,55.88
2019-03-03T01:48:43.451Z,55.86
2019-03-03T01:51:10.101Z,56.46
2019-03-03T01:53:36.722Z,56.12
2019-03-03T01:56:03.495Z,55.79
2019-03-03T01:58:30.391Z,56.05
2019-03-03T02:00:57.102Z,56.18
2019-03-03T02:03:24.077Z,56.79
2019-03-03T02:05:50.940Z,56.95
2019-03-03T02:08:17.909Z,56.66
2019-03-03T02:10:44.716Z,56.40
2019-03-03T02:13:11.367Z,56.73
2019-03-03T02:15:38.132Z,56.46
2019-03-03T02:18:04.760Z,56.43
2019-03-03T02:20:31.565Z,56.68
2019-03-03T02:22:58.491Z,57.28
2019-03-03T02:25:25.094Z,57.47
2019-03-03T02:27:52.161Z,57.39
2019-03-03T02:30:18.930Z,57.22
2019-03-03T02:32:46.147Z,57.11
2019-03-03T02:35:12.899Z,57.34
2019-03-03T02:37:39.579Z,57.23
2019-03-03T02:40:06.187Z,57.43
2019-03-03T02:42:32.888Z,57.54
2019-03-03T02:44:59.644Z,57.93
2019-03-03T02:47:26.507Z,58.28
2019-03-03T02:49:53.779Z,58.62
2019-03-03T02:52:20.722Z,58.07
2019-03-03T02:54:47.624Z,58.03
2019-03-03T02:57:15.565Z,57.92
2019-03-03T02:59:42.171Z,57.74
2019-03-03T03:02:08.824Z,57.83
2019-03-03T03:04:35.517Z,57.96
2019-03-03T03:07:02.645Z,58.17
2019-03-03T03:09:29.466Z,58.01
2019-03-03T03:11:56.800Z,57.52
2019-03-03T03:14:23.524Z,56.96
2019-03-03T03:16:50.443Z,56.52
2019-03-03T03:19:17.078Z,56.82
2019-03-03T03:21:45.847Z,57.34
2019-03-03T03:24:12.595Z,57.87
2019-03-03T03:26:39.679Z,57.50
2019-03-03T03:29:06.596Z,57.79
2019-03-03T03:31:33.442Z,57.90
2019-03-03T03:34:00.044Z,58.46
2019-03-03T03:36:27.010Z,58.86
2019-03-03T03:38:53.816Z,58.65
2019-03-03T03:41:20.541Z,58.60
2019-03-03T03:43:47.315Z,59.24
2019-03-03T03:46:13.967Z,59.31
2019-03-03T03:48:40.863Z,58.62
2019-03-03T03:51:07.535Z,58.57
2019-03-03T03:53:34.181Z,59.14
2019-03-03T03:56:01.101Z,59.06
2019-03-03T03:58:28.125Z,59.15
2019-03-03T04:00:55.004Z,59.24
2019-03-03T04:03:21.648Z,58.60
2019-03-03T04:05:48.339Z,58.15
2019-03-03T04:08:15.262Z,58.07
2019-03-03T04:10:42.180Z,58.24
2019-03-03T04:13:08.847Z,58.36
2019-03-03T04:15:35.493Z,58.26
2019-03-03T04:18:04.777Z,58.17
2019-03-03T04:20:31.475Z,57.92
2019-03-03T04:23:00.122Z,57.84
2019-03-03T04:25:27.987Z,58.11
2019-03-03T04:27:55.643Z,58.36
2019-03-03T04:30:27.970Z,58.66
2019-03-03T04:32:56.889Z,58.70
2019-03-03T04:35:24.023Z,58.73
2019-03-03T04:37:50.995Z,58.46
2019-03-03T04:40:19.386Z,59.03
2019-03-03T04:42:45.965Z,59.35
2019-03-03T04:45:13.092Z,59.60
2019-03-03T04:47:39.918Z,59.80
2019-03-03T04:50:06.884Z,59.25
2019-03-03T04:52:36.658Z,58.95
2019-03-03T04:55:05.211Z,58.37
2019-03-03T04:57:34.441Z,58.11
2019-03-03T05:00:03.341Z,58.15
2019-03-03T05:02:32.501Z,58.15
2019-03-03T05:04:59.203Z,58.21
2019-03-03T05:07:25.860Z,58.12
2019-03-03T05:09:52.569Z,58.70
2019-03-03T05:12:19.242Z,59.04
2019-03-03T05:14:45.816Z,58.87
2019-03-03T05:17:12.488Z,58.22
2019-03-03T05:19:39.311Z,58.50
2019-03-03T05:22:06.886Z,59.08
2019-03-03T05:24:34.563Z,59.32
2019-03-03T05:27:02.013Z,59.09
2019-03-03T05:29:28.924Z,59.43
2019-03-03T05:31:55.583Z,58.99
2019-03-03T05:34:22.655Z,58.67
2019-03-03T05:36:49.612Z,58.67
2019-03-03T05:39:16.243Z,59.53
2019-03-03T05:41:42.860Z,58.89
2019-03-03T05:44:09.846Z,58.60
2019-03-03T05:46:37.100Z,59.08
2019-03-03T05:49:03.885Z,59.18
2019-03-03T05:51:31.412Z,58.90
2019-03-03T05:53:58.295Z,58.38
2019-03-03T05:56:25.357Z,58.48
2019-03-03T05:58:52.174Z,58.43
2019-03-03T06:01:19.526Z,58.38
2019-03-03T06:03:46.171Z,58.29
2019-03-03T06:06:13.134Z,58.80
2019-03-03T06:08:39.893Z,59.14
2019-03-03T06:11:06.864Z,59.64
2019-03-03T06:13:33.663Z,59.87
2019-03-03T06:16:01.114Z,59.67
2019-03-03T06:18:43.350Z,59.17
2019-03-03T06:21:10.152Z,58.97
2019-03-03T06:23:36.858Z,58.62
2019-03-03T06:26:03.476Z,58.27
2019-03-03T06:28:30.325Z,57.96
2019-03-03T06:30:57.004Z,58.00
2019-03-03T06:33:25.224Z,57.56
2019-03-03T06:35:52.842Z,57.48
2019-03-03T06:38:19.711Z,57.32
2019-03-03T06:40:46.334Z,57.50
2019-03-03T06:43:13.270Z,58.54
2019-03-03T06:45:40.226Z,59.41
2019-03-03T06:48:07.556Z,59.60
2019-03-03T06:50:35.166Z,59.44
2019-03-03T06:53:02.016Z,59.23
2019-03-03T06:55:28.795Z,58.56
2019-03-03T06:57:55.584Z,57.96
2019-03-03T07:00:22.292Z,57.45
2019-03-03T07:02:48.928Z,57.28
2019-03-03T07:05:15.571Z,57.67
2019-03-03T07:10:29.122Z,58.45
2019-03-03T07:12:56.869Z,58.21
2019-03-03T07:15:23.541Z,57.35
2019-03-03T07:17:50.203Z,56.87
2019-03-03T07:20:21.135Z,56.48
2019-03-03T07:22:51.563Z,56.07
2019-03-03T07:25:18.419Z,55.87
2019-03-03T07:27:45.109Z,56.04
2019-03-03T07:30:11.743Z,55.84
2019-03-03T07:32:41.448Z,55.58
2019-03-03T07:35:11.102Z,55.21
2019-03-03T07:37:37.995Z,54.63
2019-03-03T07:40:07.144Z,54.33
2019-03-03T07:42:34.043Z,53.86
2019-03-03T07:45:04.522Z,53.86
2019-03-03T07:47:29.499Z,53.61
2019-03-03T07:49:59.705Z,53.20
2019-03-03T07:52:28.934Z,53.48
2019-03-03T07:54:55.539Z,53.20
2019-03-03T07:57:23.138Z,52.74
2019-03-03T07:59:52.259Z,52.63
2019-03-03T08:02:18.908Z,52.08
2019-03-03T08:04:45.796Z,52.08
2019-03-03T08:07:12.573Z,51.17
2019-03-03T08:09:39.526Z,51.29
2019-03-03T08:12:06.176Z,51.23
2019-03-03T08:14:33.905Z,51.07
2019-03-03T08:17:00.650Z,51.38
2019-03-03T08:19:27.309Z,51.14
2019-03-03T08:29:54.855Z,49.41
2019-03-03T08:32:21.541Z,49.13
2019-03-03T08:34:48.256Z,48.45
2019-03-03T08:37:14.992Z,48.13
2019-03-03T08:39:42.375Z,48.44
2019-03-03T08:42:09.199Z,47.51
2019-03-03T08:44:36.448Z,47.46
2019-03-03T08:47:04.623Z,47.39
2019-03-03T08:49:31.357Z,47.16
2019-03-03T08:51:58.231Z,46.57
2019-03-03T08:54:25.138Z,45.88
2019-03-03T08:56:52.193Z,45.27
2019-03-03T08:59:19.368Z,45.39
2019-03-03T09:01:46.274Z,44.98
2019-03-03T09:04:13.030Z,45.01
2019-03-03T09:06:46.812Z,44.65
2019-03-03T09:09:13.842Z,44.09
2019-03-03T09:14:12.889Z,44.28
2019-03-03T09:16:41.543Z,45.19
2019-03-03T09:19:12.292Z,44.38
2019-03-03T09:21:42.667Z,43.25
2019-03-03T09:24:09.272Z,43.55
2019-03-03T09:26:48.190Z,42.91
2019-03-03T09:29:14.549Z,44.36
2019-03-03T09:34:28.906Z,42.33
2019-03-03T09:36:59.610Z,41.51
2019-03-03T09:39:29.719Z,41.48
2019-03-03T09:41:58.515Z,42.28
2019-03-03T09:44:27.208Z,41.23
2019-03-03T09:46:54.531Z,41.58
2019-03-03T09:49:27.332Z,40.37
2019-03-03T09:51:58.542Z,40.42
2019-03-03T09:54:26.547Z,41.08
2019-03-03T09:56:55.944Z,40.42
2019-03-03T09:59:23.175Z,40.30
2019-03-03T10:01:50.114Z,40.26
2019-03-03T10:04:16.985Z,39.33
2019-03-03T10:06:43.903Z,38.92
2019-03-03T10:09:10.555Z,38.43
2019-03-03T10:11:37.767Z,39.66
2019-03-03T10:14:04.414Z,38.89
2019-03-03T10:16:31.072Z,37.47
2019-03-03T10:21:30.304Z,37.81
2019-03-03T10:23:57.432Z,34.98
2019-03-03T10:26:24.430Z,36.23
2019-03-03T10:28:51.523Z,33.74
2019-03-03T10:31:18.332Z,33.37
2019-03-03T10:33:45.613Z,33.28
2019-03-03T10:36:12.484Z,33.08
2019-03-03T10:38:39.150Z,31.30
2019-03-03T10:41:05.723Z,30.76
2019-03-03T10:43:32.505Z,30.24
2019-03-03T10:45:59.713Z,29.51
2019-03-03T10:48:26.612Z,30.28
2019-03-03T10:50:54.109Z,29.92
2019-03-03T10:53:20.790Z,30.12
2019-03-03T10:55:48.094Z,29.89
2019-03-03T10:58:14.800Z,30.82
2019-03-03T11:00:42.160Z,30.51
2019-03-03T11:03:08.913Z,31.48
2019-03-03T11:05:36.755Z,31.18
2019-03-03T11:10:57.336Z,29.90
2019-03-03T11:13:18.818Z,31.06
2019-03-03T11:15:47.873Z,29.14
2019-03-03T11:21:17.785Z,27.06
2019-03-03T11:23:52.953Z,28.02
2019-03-03T11:26:21.759Z,26.96
2019-03-03T11:28:48.407Z,28.56
2019-03-03T11:31:19.550Z,27.22
2019-03-03T11:33:52.580Z,27.83
2019-03-03T11:36:19.361Z,27.06
2019-03-03T11:41:34.998Z,27.20
2019-03-03T11:44:05.691Z,28.31
2019-03-03T11:46:32.817Z,25.90
2019-03-03T11:49:01.817Z,26.73
2019-03-03T11:51:28.521Z,26.15
2019-03-03T11:53:56.164Z,26.81
2019-03-03T11:56:41.640Z,26.57
2019-03-03T11:59:10.543Z,27.17
2019-03-03T12:01:37.719Z,27.11
2019-03-03T12:04:04.381Z,27.77
2019-03-03T12:06:31.671Z,26.68
2019-03-03T12:08:58.700Z,26.45
2019-03-03T12:11:25.552Z,27.16
2019-03-03T12:16:36.452Z,27.01
2019-03-03T12:19:03.370Z,26.47
2019-03-03T12:21:30.620Z,26.39
2019-03-03T12:23:57.500Z,26.15
2019-03-03T12:26:24.293Z,27.61
2019-03-03T12:28:51.365Z,26.68
2019-03-03T12:31:18.589Z,25.12
2019-03-03T12:33:45.351Z,25.67
2019-03-03T12:36:12.691Z,26.58
2019-03-03T12:38:39.626Z,25.95
2019-03-03T12:41:06.743Z,25.51
2019-03-03T12:43:33.688Z,25.80
2019-03-03T12:46:00.848Z,25.19
2019-03-03T12:48:28.677Z,26.07
2019-03-03T12:50:55.558Z,25.54
2019-03-03T12:53:22.176Z,25.94
2019-03-03T12:55:48.982Z,25.23
2019-03-03T12:58:15.957Z,25.02
2019-03-03T13:00:42.693Z,25.54
2019-03-03T13:03:09.384Z,25.10
2019-03-03T13:05:38.343Z,25.16
2019-03-03T13:08:07.484Z,24.66
2019-03-03T13:10:34.610Z,24.88
2019-03-03T13:13:05.310Z,25.67
2019-03-03T13:15:33.000Z,23.96
2019-03-03T13:18:01.604Z,25.00
2019-03-03T13:20:33.051Z,25.28
2019-03-03T13:23:01.397Z,25.08
2019-03-03T13:25:28.604Z,24.37
2019-03-03T13:27:58.323Z,24.85
2019-03-03T13:30:28.431Z,24.83
2019-03-03T13:32:56.146Z,23.84
2019-03-03T13:35:24.758Z,24.50
2019-03-03T13:37:55.130Z,24.97
2019-03-03T13:45:38.981Z,24.88
2019-03-03T13:48:08.967Z,24.04
2019-03-03T13:50:38.065Z,24.86
2019-03-03T13:53:06.859Z,24.35
2019-03-03T13:55:33.900Z,23.50
2019-03-03T13:58:01.179Z,23.50
2019-03-03T14:00:32.314Z,25.03
2019-03-03T14:02:58.880Z,24.03
2019-03-03T14:05:28.442Z,24.59
2019-03-03T14:07:56.332Z,23.39
2019-03-03T14:10:25.435Z,23.92
2019-03-03T14:12:54.682Z,24.18
2019-03-03T14:15:22.148Z,23.95
2019-03-03T14:17:50.353Z,24.35
2019-03-03T14:20:18.866Z,24.26
2019-03-03T14:22:46.128Z,23.48
2019-03-03T14:25:15.168Z,23.56
2019-03-03T14:27:41.863Z,23.38
2019-03-03T14:32:43.020Z,23.27
2019-03-03T14:35:13.285Z,23.52
2019-03-03T14:37:41.472Z,22.86
2019-03-03T14:40:08.507Z,23.24
2019-03-03T14:42:35.406Z,23.64
2019-03-03T14:45:06.167Z,23.24
2019-03-03T14:47:35.110Z,23.07
2019-03-03T14:50:04.183Z,23.68
2019-03-03T14:52:32.482Z,22.92
2019-03-03T14:54:59.436Z,22.83
2019-03-03T14:57:29.046Z,23.36
2019-03-03T14:59:55.722Z,22.99
2019-03-03T15:02:23.059Z,23.96
2019-03-03T15:04:51.593Z,24.07
2019-03-03T15:07:18.678Z,24.16
2019-03-03T15:09:45.567Z,23.41
2019-03-03T15:12:12.628Z,23.43
2019-03-03T15:14:39.617Z,23.88
2019-03-03T15:17:06.288Z,23.93
2019-03-03T15:19:33.044Z,23.56
2019-03-03T15:22:00.077Z,23.52
2019-03-03T15:24:26.707Z,23.47
2019-03-03T15:26:53.486Z,24.01
2019-03-03T15:29:20.709Z,23.57
2019-03-03T15:31:47.632Z,23.36
2019-03-03T15:34:15.678Z,23.91
2019-03-03T15:36:42.756Z,23.80
2019-03-03T15:39:09.571Z,23.82
2019-03-03T15:41:36.725Z,24.50
2019-03-03T15:44:03.853Z,24.12
2019-03-03T15:46:30.693Z,24.47
2019-03-03T15:48:57.356Z,24.19
2019-03-03T15:51:24.093Z,24.82
2019-03-03T15:53:50.886Z,24.95
2019-03-03T15:56:17.670Z,24.65
2019-03-03T15:58:44.956Z,24.62
2019-03-03T16:01:11.907Z,25.46
2019-03-03T16:03:39.000Z,25.09
2019-03-03T16:06:05.936Z,25.35
2019-03-03T16:08:33.222Z,25.72
2019-03-03T16:10:59.940Z,25.38
2019-03-03T16:13:26.851Z,25.78
2019-03-03T16:15:53.688Z,26.01
2019-03-03T16:18:20.616Z,26.38
2019-03-03T16:20:50.473Z,26.68
2019-03-03T16:23:17.797Z,27.01
2019-03-03T16:25:44.554Z,27.76
2019-03-03T16:28:11.303Z,27.34
2019-03-03T16:30:37.959Z,27.92
2019-03-03T16:33:04.954Z,28.09
2019-03-03T16:35:31.849Z,28.70
2019-03-03T16:37:58.694Z,28.83
2019-03-03T16:40:25.914Z,28.88
2019-03-03T16:42:52.855Z,29.51
2019-03-03T16:45:20.141Z,29.95
2019-03-03T16:47:47.025Z,30.22
2019-03-03T16:50:14.061Z,30.70
2019-03-03T16:52:41.100Z,30.87
2019-03-03T16:55:08.280Z,31.28
2019-03-03T16:57:34.919Z,31.11
2019-03-03T17:00:01.518Z,31.13
2019-03-03T17:02:28.124Z,31.47
2019-03-03T17:04:55.443Z,32.12
2019-03-03T17:07:22.298Z,32.49
2019-03-03T17:09:49.224Z,32.94
2019-03-03T17:12:16.374Z,33.24
2019-03-03T17:14:43.272Z,33.85
2019-03-03T17:17:10.452Z,33.37
2019-03-03T17:19:40.749Z,33.84
2019-03-03T17:22:07.729Z,33.87
2019-03-03T17:24:35.668Z,34.15
2019-03-03T17:27:02.310Z,33.73
2019-03-03T17:29:30.458Z,33.81
2019-03-03T17:31:57.204Z,34.11
2019-03-03T17:34:23.874Z,34.01
2019-03-03T17:36:50.577Z,34.34
2019-03-03T17:39:17.222Z,34.56
2019-03-03T17:41:43.979Z,34.81
2019-03-03T17:44:10.513Z,35.01
2019-03-03T17:46:38.070Z,35.25
2019-03-03T17:49:04.653Z,35.25
2019-03-03T17:51:31.291Z,35.09
2019-03-03T17:53:57.897Z,35.30
2019-03-03T17:56:24.532Z,35.25
2019-03-03T17:58:51.165Z,35.28
2019-03-03T18:01:18.076Z,35.25
2019-03-03T18:03:44.903Z,35.32
2019-03-03T18:06:11.484Z,35.44
